createdAt,value
2017-08-17T00:00:20.733Z,83.60
2017-08-17T00:02:47.653Z,83.60
2017-08-17T00:05:14.621Z,83.60
2017-08-17T00:07:41.577Z,83.80
2017-08-17T00:10:08.521Z,83.80
2017-08-17T00:12:35.433Z,83.30
2017-08-17T00:15:02.317Z,83.70
2017-08-17T00:17:29.657Z,84.00
2017-08-17T00:19:56.551Z,84.00
2017-08-17T00:22:23.433Z,83.90
2017-08-17T00:24:50.358Z,83.80
2017-08-17T00:27:17.245Z,84.00
2017-08-17T00:29:44.297Z,84.00
2017-08-17T00:32:11.225Z,83.90
2017-08-17T00:34:38.189Z,83.80
2017-08-17T00:37:05.077Z,83.60
2017-08-17T00:39:32.010Z,83.30
2017-08-17T00:41:58.925Z,83.50
2017-08-17T00:44:25.806Z,83.30
2017-08-17T00:46:52.742Z,83.30
2017-08-17T00:49:19.657Z,83.20
2017-08-17T00:51:46.547Z,82.90
2017-08-17T00:54:13.505Z,82.80
2017-08-17T00:56:40.389Z,83.10
2017-08-17T00:59:07.294Z,83.50
2017-08-17T01:01:34.206Z,83.50
2017-08-17T01:04:01.525Z,83.30
2017-08-17T01:06:28.409Z,83.30
2017-08-17T01:08:55.302Z,83.60
2017-08-17T01:11:22.226Z,83.20
2017-08-17T01:13:49.109Z,83.60
2017-08-17T01:16:15.998Z,83.80
2017-08-17T01:18:43.018Z,84.00
2017-08-17T01:21:09.898Z,84.20
2017-08-17T01:23:36.833Z,84.00
2017-08-17T01:26:04.266Z,83.70
2017-08-17T01:28:31.164Z,83.70
2017-08-17T01:30:58.053Z,83.90
2017-08-17T01:33:24.980Z,84.00
2017-08-17T01:35:51.869Z,84.10
2017-08-17T01:38:19.184Z,83.80
2017-08-17T01:40:46.113Z,83.80
2017-08-17T01:43:12.994Z,83.50
2017-08-17T01:45:39.885Z,83.90
2017-08-17T01:48:06.805Z,84.20
2017-08-17T01:50:34.092Z,84.70
2017-08-17T01:53:00.968Z,84.60
2017-08-17T01:55:27.893Z,84.50
2017-08-17T01:57:54.781Z,84.70
2017-08-17T02:00:22.065Z,84.40
2017-08-17T02:02:48.985Z,84.40
2017-08-17T02:05:16.258Z,84.00
2017-08-17T02:07:43.138Z,84.00
2017-08-17T02:10:10.062Z,83.80
2017-08-17T02:12:36.942Z,83.80
2017-08-17T02:15:03.912Z,84.00
2017-08-17T02:17:30.865Z,84.20
2017-08-17T02:19:58.217Z,84.60
2017-08-17T02:22:25.573Z,84.40
2017-08-17T02:24:52.925Z,84.40
2017-08-17T02:27:19.877Z,84.30
2017-08-17T02:29:57.154Z,84.20
2017-08-17T02:32:24.109Z,84.20
2017-08-17T02:34:50.993Z,84.30
2017-08-17T02:37:17.909Z,84.00
2017-08-17T02:39:45.197Z,84.30
2017-08-17T02:42:12.085Z,84.30
2017-08-17T02:44:39.045Z,84.30
2017-08-17T02:47:05.931Z,84.20
2017-08-17T02:49:32.829Z,84.30
2017-08-17T02:51:59.781Z,84.30
2017-08-17T02:54:26.661Z,84.00
2017-08-17T02:56:53.542Z,83.90
2017-08-17T02:59:20.527Z,83.90
2017-08-17T03:01:47.814Z,84.00
2017-08-17T03:04:14.717Z,84.00
2017-08-17T03:06:41.665Z,84.00
2017-08-17T03:09:08.609Z,84.30
2017-08-17T03:11:35.562Z,84.20
2017-08-17T03:14:02.509Z,84.20
2017-08-17T03:16:29.861Z,84.00
2017-08-17T03:18:56.810Z,84.00
2017-08-17T03:21:23.761Z,83.60
2017-08-17T03:23:50.714Z,83.90
2017-08-17T03:26:17.988Z,84.60
2017-08-17T03:28:44.902Z,84.60
2017-08-17T03:31:11.789Z,84.60
2017-08-17T03:33:38.689Z,84.60
2017-08-17T03:36:05.757Z,84.70
2017-08-17T03:38:33.164Z,83.90
2017-08-17T03:41:00.150Z,83.90
2017-08-17T03:43:27.474Z,84.40
2017-08-17T03:45:54.445Z,84.40
2017-08-17T03:48:21.402Z,84.60
2017-08-17T03:50:48.754Z,84.50
2017-08-17T03:53:16.102Z,84.60
2017-08-17T03:55:43.054Z,84.60
2017-08-17T03:58:10.410Z,84.50
2017-08-17T04:00:37.353Z,84.50
2017-08-17T04:03:04.235Z,84.60
2017-08-17T04:05:31.149Z,84.90
2017-08-17T04:07:58.507Z,84.50
2017-08-17T04:10:25.787Z,84.50
2017-08-17T04:12:52.793Z,84.50
2017-08-17T04:15:19.677Z,84.80
2017-08-17T04:17:46.593Z,84.90
2017-08-17T04:20:13.541Z,84.90
2017-08-17T04:22:40.425Z,84.90
2017-08-17T04:25:07.313Z,85.00
2017-08-17T04:27:34.274Z,84.90
2017-08-17T04:30:01.156Z,84.90
2017-08-17T04:32:28.070Z,84.70
2017-08-17T04:34:55.011Z,84.60
2017-08-17T04:37:21.954Z,84.80
2017-08-17T04:39:48.910Z,84.50
2017-08-17T04:42:15.833Z,84.10
2017-08-17T04:44:42.801Z,83.90
2017-08-17T04:47:09.789Z,83.80
2017-08-17T04:49:36.793Z,84.10
2017-08-17T04:52:11.239Z,84.30
2017-08-17T04:54:38.569Z,84.30
2017-08-17T04:57:17.496Z,84.30
2017-08-17T04:59:44.449Z,83.90
2017-08-17T05:02:11.335Z,83.60
2017-08-17T05:04:38.217Z,83.80
2017-08-17T05:07:05.185Z,84.00
2017-08-17T05:09:32.070Z,84.20
2017-08-17T05:11:58.973Z,84.00
2017-08-17T05:14:25.896Z,84.20
2017-08-17T05:16:52.861Z,83.80
2017-08-17T05:19:19.814Z,83.60
2017-08-17T05:21:46.749Z,83.40
2017-08-17T05:24:13.707Z,83.60
2017-08-17T05:26:40.599Z,84.10
2017-08-17T05:29:07.594Z,84.10
2017-08-17T05:31:34.485Z,84.30
2017-08-17T05:34:01.385Z,84.30
2017-08-17T05:36:28.405Z,84.10
2017-08-17T05:38:55.298Z,84.10
2017-08-17T05:41:22.665Z,83.70
2017-08-17T05:43:49.689Z,83.80
2017-08-17T05:46:16.657Z,83.70
2017-08-17T05:48:53.881Z,83.40
2017-08-17T05:51:20.774Z,83.40
2017-08-17T05:53:48.056Z,83.10
2017-08-17T05:56:14.974Z,83.10
2017-08-17T05:58:42.338Z,82.40
2017-08-17T06:01:09.698Z,82.10
2017-08-17T06:03:37.028Z,81.80
2017-08-17T06:06:03.981Z,81.80
2017-08-17T06:08:30.928Z,81.70
2017-08-17T06:10:57.855Z,81.80
2017-08-17T06:13:24.749Z,81.50
2017-08-17T06:15:51.661Z,81.40
2017-08-17T06:18:18.581Z,81.50
2017-08-17T06:20:45.483Z,81.30
2017-08-17T06:23:12.405Z,80.20
2017-08-17T06:25:39.361Z,79.80
2017-08-17T06:28:06.644Z,80.30
2017-08-17T06:30:33.535Z,80.30
2017-08-17T06:33:00.463Z,80.80
2017-08-17T06:35:27.350Z,81.20
2017-08-17T06:37:54.702Z,81.60
2017-08-17T06:40:22.022Z,80.60
2017-08-17T06:42:48.997Z,80.50
2017-08-17T06:45:15.944Z,78.80
2017-08-17T06:47:42.897Z,77.90
2017-08-17T06:50:10.300Z,78.50
2017-08-17T06:52:37.190Z,78.60
2017-08-17T06:55:04.145Z,79.30
2017-08-17T06:57:31.497Z,78.80
2017-08-17T06:59:58.441Z,78.90
2017-08-17T07:02:25.449Z,78.70
2017-08-17T07:04:52.338Z,78.80
2017-08-17T07:07:19.281Z,78.50
2017-08-17T07:09:46.234Z,78.90
2017-08-17T07:12:13.518Z,77.70
2017-08-17T07:14:40.433Z,77.70
2017-08-17T07:17:07.753Z,78.30
2017-08-17T07:19:34.726Z,78.30
2017-08-17T07:22:01.656Z,78.50
2017-08-17T07:24:28.622Z,78.00
2017-08-17T07:26:55.565Z,77.50
2017-08-17T07:29:22.530Z,77.40
2017-08-17T07:31:49.865Z,77.40
2017-08-17T07:34:16.821Z,77.40
2017-08-17T07:36:43.761Z,74.60
2017-08-17T07:39:10.694Z,75.40
2017-08-17T07:41:37.661Z,75.90
2017-08-17T07:44:05.010Z,75.80
2017-08-17T07:46:31.957Z,75.80
2017-08-17T07:48:58.865Z,75.80
2017-08-17T07:51:25.769Z,75.70
2017-08-17T07:53:53.089Z,75.10
2017-08-17T07:56:20.057Z,75.10
2017-08-17T07:58:47.345Z,73.40
2017-08-17T08:01:14.269Z,73.40
2017-08-17T08:03:41.564Z,74.70
2017-08-17T08:06:08.454Z,74.70
2017-08-17T08:08:35.913Z,75.70
2017-08-17T08:11:02.857Z,75.70
2017-08-17T08:13:29.750Z,76.30
2017-08-17T08:15:56.669Z,75.10
2017-08-17T08:18:23.601Z,74.50
2017-08-17T08:20:50.945Z,72.90
2017-08-17T08:23:17.903Z,72.90
2017-08-17T08:25:45.261Z,72.60
2017-08-17T08:28:12.537Z,73.10
2017-08-17T08:30:39.553Z,73.10
2017-08-17T08:33:06.504Z,73.70
2017-08-17T08:35:33.553Z,74.00
2017-08-17T08:38:01.106Z,73.30
2017-08-17T08:40:28.117Z,73.30
2017-08-17T08:42:55.023Z,73.00
2017-08-17T08:45:21.953Z,72.60
2017-08-17T08:47:48.854Z,72.20
2017-08-17T08:50:15.744Z,72.30
2017-08-17T08:52:43.306Z,71.80
2017-08-17T08:55:10.665Z,71.70
2017-08-17T08:57:37.948Z,71.40
2017-08-17T09:00:04.976Z,71.40
2017-08-17T09:02:32.320Z,71.20
2017-08-17T09:04:59.258Z,71.20
2017-08-17T09:07:26.209Z,70.00
2017-08-17T09:09:53.157Z,70.00
2017-08-17T09:12:20.147Z,70.60
2017-08-17T09:14:47.101Z,71.00
2017-08-17T09:17:14.385Z,71.10
2017-08-17T09:19:41.295Z,71.10
2017-08-17T09:22:08.225Z,70.90
2017-08-17T09:24:35.136Z,71.00
2017-08-17T09:27:02.025Z,70.80
2017-08-17T09:29:28.989Z,70.80
2017-08-17T09:31:56.344Z,70.40
2017-08-17T09:34:23.620Z,70.40
2017-08-17T09:36:50.554Z,70.40
2017-08-17T09:39:17.893Z,70.10
2017-08-17T09:41:44.837Z,70.10
2017-08-17T09:44:11.781Z,71.70
2017-08-17T09:46:38.724Z,72.70
2017-08-17T09:49:05.677Z,72.30
2017-08-17T09:51:32.630Z,70.90
2017-08-17T09:53:59.905Z,70.40
2017-08-17T09:56:26.823Z,70.40
2017-08-17T09:58:53.785Z,71.10
2017-08-17T10:01:21.126Z,70.30
2017-08-17T10:03:48.038Z,70.30
2017-08-17T10:06:14.953Z,70.30
2017-08-17T10:08:41.842Z,70.00
2017-08-17T10:11:08.726Z,69.50
2017-08-17T10:13:36.045Z,69.10
2017-08-17T10:16:03.010Z,69.10
2017-08-17T10:18:30.365Z,68.60
2017-08-17T10:20:57.285Z,68.60
2017-08-17T10:23:24.170Z,68.90
2017-08-17T10:25:51.474Z,68.50
2017-08-17T10:28:18.389Z,68.50
2017-08-17T10:30:45.274Z,69.50
2017-08-17T10:33:12.245Z,69.30
2017-08-17T10:35:39.166Z,69.70
2017-08-17T10:38:06.138Z,69.90
2017-08-17T10:40:33.092Z,69.50
2017-08-17T10:43:00.437Z,69.80
2017-08-17T10:45:27.314Z,69.80
2017-08-17T10:47:54.217Z,69.20
2017-08-17T10:50:21.169Z,68.10
2017-08-17T10:52:48.050Z,68.40
2017-08-17T10:55:14.949Z,68.50
2017-08-17T10:57:41.865Z,69.00
2017-08-17T11:00:08.750Z,68.80
2017-08-17T11:02:35.630Z,67.90
2017-08-17T11:05:02.555Z,69.60
2017-08-17T11:07:29.837Z,69.10
2017-08-17T11:09:56.749Z,69.10
2017-08-17T11:12:23.657Z,67.50
2017-08-17T11:14:50.545Z,66.80
2017-08-17T11:17:17.433Z,67.90
2017-08-17T11:19:44.429Z,66.70
2017-08-17T11:22:11.384Z,66.40
2017-08-17T11:24:38.285Z,67.50
2017-08-17T11:27:05.210Z,67.10
2017-08-17T11:29:32.117Z,66.80
2017-08-17T11:31:59.010Z,67.80
2017-08-17T11:34:26.013Z,68.80
2017-08-17T11:36:52.957Z,68.80
2017-08-17T11:39:19.843Z,69.10
2017-08-17T11:41:46.776Z,70.50
2017-08-17T11:44:13.717Z,69.90
2017-08-17T11:47:26.873Z,69.20
2017-08-17T11:49:53.786Z,69.50
2017-08-17T11:52:20.693Z,69.00
2017-08-17T11:54:47.662Z,68.50
2017-08-17T11:57:14.613Z,66.70
2017-08-17T11:59:41.575Z,66.70
2017-08-17T12:02:08.554Z,66.80
2017-08-17T12:04:35.445Z,66.30
2017-08-17T12:07:02.404Z,65.80
2017-08-17T12:09:29.345Z,65.90
2017-08-17T12:11:56.289Z,66.00
2017-08-17T12:14:23.258Z,65.40
2017-08-17T12:16:50.200Z,63.50
2017-08-17T12:19:17.143Z,63.40
2017-08-17T12:21:44.165Z,63.30
2017-08-17T12:24:11.082Z,62.60
2017-08-17T12:26:38.066Z,61.70
2017-08-17T12:29:04.970Z,63.00
2017-08-17T12:31:31.899Z,62.70
2017-08-17T12:33:58.909Z,62.20
2017-08-17T12:36:25.790Z,62.60
2017-08-17T12:38:52.810Z,63.60
2017-08-17T12:41:19.709Z,62.50
2017-08-17T12:43:46.600Z,62.50
2017-08-17T12:46:13.535Z,61.80
2017-08-17T12:48:40.415Z,62.00
2017-08-17T12:51:07.309Z,60.70
2017-08-17T12:53:34.309Z,61.80
2017-08-17T12:56:01.245Z,62.20
2017-08-17T12:58:28.126Z,61.70
2017-08-17T13:00:55.047Z,61.20
2017-08-17T13:03:21.961Z,61.20
2017-08-17T13:05:48.841Z,61.40
2017-08-17T13:08:15.765Z,60.80
2017-08-17T13:10:42.697Z,60.70
2017-08-17T13:13:09.641Z,60.70
2017-08-17T13:15:36.569Z,60.20
2017-08-17T13:18:03.477Z,59.40
2017-08-17T13:20:30.362Z,59.70
2017-08-17T13:22:57.370Z,59.60
2017-08-17T13:25:24.258Z,60.30
2017-08-17T13:27:51.214Z,60.20
2017-08-17T13:30:18.160Z,60.40
2017-08-17T13:32:45.114Z,60.00
2017-08-17T13:35:12.052Z,60.20
2017-08-17T13:37:38.989Z,59.50
2017-08-17T13:40:05.963Z,60.00
2017-08-17T13:42:32.844Z,59.40
2017-08-17T13:44:59.764Z,58.90
2017-08-17T13:47:26.684Z,59.50
2017-08-17T13:49:53.736Z,58.70
2017-08-17T13:52:20.653Z,58.40
2017-08-17T13:54:47.537Z,58.60
2017-08-17T13:57:14.486Z,58.60
2017-08-17T13:59:41.526Z,57.90
2017-08-17T14:02:08.411Z,57.90
2017-08-17T14:04:35.297Z,59.20
2017-08-17T14:07:02.252Z,58.00
2017-08-17T14:09:29.148Z,58.10
2017-08-17T14:11:56.149Z,57.10
2017-08-17T14:14:23.117Z,57.10
2017-08-17T14:16:50.045Z,57.90
2017-08-17T14:19:16.925Z,56.90
2017-08-17T14:21:43.937Z,56.10
2017-08-17T14:24:10.845Z,56.30
2017-08-17T14:26:37.832Z,56.90
2017-08-17T14:29:04.753Z,56.90
2017-08-17T14:31:31.763Z,57.10
2017-08-17T14:33:58.672Z,57.20
2017-08-17T14:36:25.615Z,57.30
2017-08-17T14:38:52.565Z,57.70
2017-08-17T14:41:19.452Z,57.20
2017-08-17T14:43:46.450Z,57.30
2017-08-17T14:46:13.399Z,57.30
2017-08-17T14:48:40.362Z,57.70
2017-08-17T14:51:07.401Z,57.60
2017-08-17T14:53:34.339Z,57.80
2017-08-17T14:56:01.282Z,58.00
2017-08-17T14:58:28.239Z,57.80
2017-08-17T15:00:55.122Z,57.40
2017-08-17T15:03:21.999Z,58.00
2017-08-17T15:05:48.925Z,58.00
2017-08-17T15:08:15.884Z,57.90
2017-08-17T15:10:42.858Z,58.20
2017-08-17T15:13:09.821Z,58.30
2017-08-17T15:15:36.718Z,58.30
2017-08-17T15:18:03.598Z,58.70
2017-08-17T15:20:30.517Z,59.00
2017-08-17T15:22:57.494Z,58.90
2017-08-17T15:25:24.433Z,60.10
2017-08-17T15:27:51.356Z,60.30
2017-08-17T15:30:18.341Z,60.10
2017-08-17T15:32:46.829Z,60.10
2017-08-17T15:35:13.869Z,59.60
2017-08-17T15:37:40.833Z,60.20
2017-08-17T15:40:07.774Z,60.00
2017-08-17T15:42:34.697Z,60.40
2017-08-17T15:45:01.670Z,60.80
2017-08-17T15:47:28.589Z,60.70
2017-08-17T15:49:55.585Z,61.00
2017-08-17T15:52:23.162Z,60.90
2017-08-17T15:54:50.171Z,61.40
2017-08-17T15:57:17.103Z,61.40
2017-08-17T15:59:44.044Z,60.90
2017-08-17T16:02:10.990Z,61.10
2017-08-17T16:04:37.913Z,61.10
2017-08-17T16:07:04.798Z,61.70
2017-08-17T16:09:31.726Z,62.10
2017-08-17T16:11:58.636Z,62.30
2017-08-17T16:14:25.537Z,62.10
2017-08-17T16:16:52.462Z,61.80
2017-08-17T16:19:19.405Z,61.50
2017-08-17T16:21:46.370Z,61.80
2017-08-17T16:24:13.289Z,62.00
2017-08-17T16:26:40.205Z,61.90
2017-08-17T16:29:07.343Z,61.40
2017-08-17T16:31:34.436Z,61.40
2017-08-17T16:34:01.510Z,61.60
2017-08-17T16:36:28.386Z,61.80
2017-08-17T16:38:55.336Z,61.60
2017-08-17T16:41:22.297Z,61.80
2017-08-17T16:43:49.349Z,61.80
2017-08-17T16:46:16.339Z,61.80
2017-08-17T16:48:44.097Z,61.50
2017-08-17T16:51:11.013Z,61.90
2017-08-17T16:53:37.993Z,62.90
2017-08-17T16:56:04.952Z,63.80
2017-08-17T16:58:31.844Z,64.00
2017-08-17T17:00:59.750Z,64.90
2017-08-17T17:03:26.657Z,65.60
2017-08-17T17:05:53.545Z,65.90
2017-08-17T17:08:20.512Z,66.10
2017-08-17T17:10:47.394Z,65.70
2017-08-17T17:13:14.323Z,66.10
2017-08-17T17:15:41.320Z,66.70
2017-08-17T17:18:08.319Z,66.70
2017-08-17T17:20:35.259Z,66.70
2017-08-17T17:23:02.269Z,66.80
2017-08-17T17:25:29.241Z,66.80
2017-08-17T17:27:56.161Z,66.80
2017-08-17T17:30:23.093Z,66.90
2017-08-17T17:32:49.987Z,67.10
2017-08-17T17:35:16.893Z,67.30
2017-08-17T17:37:43.865Z,67.00
2017-08-17T17:40:10.797Z,66.70
2017-08-17T17:42:37.743Z,66.40
2017-08-17T17:45:04.669Z,66.70
2017-08-17T17:47:31.630Z,67.00
2017-08-17T17:49:58.588Z,67.10
2017-08-17T17:52:25.505Z,67.10
2017-08-17T17:54:52.470Z,66.70
2017-08-17T17:57:19.412Z,66.50
2017-08-17T17:59:46.347Z,66.40
2017-08-17T18:02:13.319Z,66.50
2017-08-17T18:04:40.266Z,65.90
2017-08-17T18:07:07.305Z,65.60
2017-08-17T18:09:34.185Z,65.70
2017-08-17T18:12:01.097Z,65.60
2017-08-17T18:14:28.052Z,65.90
2017-08-17T18:16:54.945Z,66.10
2017-08-17T18:19:21.833Z,66.20
2017-08-17T18:21:48.800Z,66.00
2017-08-17T18:24:15.785Z,66.00
2017-08-17T18:26:42.662Z,66.00
2017-08-17T18:29:09.697Z,66.30
2017-08-17T18:31:36.629Z,67.00
2017-08-17T18:34:03.539Z,67.60
2017-08-17T18:36:30.515Z,68.10
2017-08-17T18:38:57.467Z,68.70
2017-08-17T18:41:24.347Z,69.00
2017-08-17T18:43:51.354Z,69.50
2017-08-17T18:46:18.312Z,69.90
2017-08-17T18:48:45.208Z,70.00
2017-08-17T18:51:12.125Z,70.20
2017-08-17T18:53:39.005Z,70.60
2017-08-17T18:56:05.884Z,70.70
2017-08-17T18:58:32.812Z,70.80
2017-08-17T19:00:59.730Z,71.00
2017-08-17T19:03:26.610Z,70.90
2017-08-17T19:05:53.525Z,70.90
2017-08-17T19:08:20.512Z,70.90
2017-08-17T19:10:47.393Z,71.10
2017-08-17T19:13:14.349Z,71.10
2017-08-17T19:15:41.241Z,70.90
2017-08-17T19:18:08.124Z,70.90
2017-08-17T19:20:35.065Z,70.80
2017-08-17T19:23:01.986Z,70.90
2017-08-17T19:25:28.902Z,71.00
2017-08-17T19:27:55.813Z,71.20
2017-08-17T19:30:22.734Z,71.30
2017-08-17T19:32:49.669Z,71.30
2017-08-17T19:35:16.625Z,71.30
2017-08-17T19:37:43.620Z,71.30
2017-08-17T19:40:10.494Z,71.60
2017-08-17T19:42:37.423Z,71.60
2017-08-17T19:45:04.346Z,71.50
2017-08-17T19:47:31.250Z,71.20
2017-08-17T19:49:58.194Z,71.00
2017-08-17T19:52:25.141Z,70.50
2017-08-17T19:54:52.034Z,70.20
2017-08-17T19:57:19.033Z,70.40
2017-08-17T19:59:45.909Z,70.70
2017-08-17T20:02:12.845Z,71.10
2017-08-17T20:04:39.813Z,71.30
2017-08-17T20:07:06.694Z,71.20
2017-08-17T20:09:33.761Z,71.10
2017-08-17T20:12:00.761Z,71.10
2017-08-17T20:14:27.709Z,71.20
2017-08-17T20:16:54.654Z,71.80
2017-08-17T20:19:21.581Z,71.70
2017-08-17T20:21:48.566Z,72.20
2017-08-17T20:24:15.500Z,72.20
2017-08-17T20:26:42.442Z,72.00
2017-08-17T20:29:09.387Z,72.20
2017-08-17T20:31:36.373Z,72.60
2017-08-17T20:34:03.385Z,72.80
2017-08-17T20:36:30.354Z,73.70
2017-08-17T20:38:57.300Z,73.60
2017-08-17T20:41:24.285Z,73.60
2017-08-17T20:43:51.174Z,73.90
2017-08-17T20:46:18.113Z,73.60
2017-08-17T20:48:45.161Z,73.80
2017-08-17T20:51:12.117Z,73.70
2017-08-17T20:53:39.006Z,73.90
2017-08-17T20:56:05.928Z,74.60
2017-08-17T20:58:32.810Z,74.40
2017-08-17T21:00:59.697Z,74.60
2017-08-17T21:03:26.640Z,74.60
2017-08-17T21:05:53.581Z,74.60
2017-08-17T21:08:20.543Z,75.00
2017-08-17T21:10:47.473Z,74.80
2017-08-17T21:13:14.785Z,75.00
2017-08-17T21:15:41.665Z,75.50
2017-08-17T21:18:08.934Z,75.80
2017-08-17T21:20:35.816Z,75.50
2017-08-17T21:23:02.702Z,75.90
2017-08-17T21:25:29.672Z,75.80
2017-08-17T21:27:56.617Z,75.50
2017-08-17T21:30:23.577Z,75.30
2017-08-17T21:32:50.509Z,75.30
2017-08-17T21:35:17.459Z,74.80
2017-08-17T21:37:44.342Z,74.90
2017-08-17T21:40:11.253Z,75.10
2017-08-17T21:42:38.137Z,75.40
2017-08-17T21:45:05.038Z,75.80
2017-08-17T21:47:31.978Z,75.70
2017-08-17T21:49:58.953Z,75.60
2017-08-17T21:52:25.833Z,76.00
2017-08-17T21:54:52.746Z,76.10
2017-08-17T21:57:19.647Z,76.60
2017-08-17T21:59:46.619Z,76.90
2017-08-17T22:02:13.663Z,77.00
2017-08-17T22:04:40.658Z,76.90
2017-08-17T22:07:07.557Z,76.70
2017-08-17T22:09:34.597Z,77.00
2017-08-17T22:12:01.501Z,77.20
2017-08-17T22:14:28.513Z,77.30
2017-08-17T22:16:55.456Z,77.30
2017-08-17T22:19:22.398Z,77.50
2017-08-17T22:21:49.301Z,77.40
2017-08-17T22:24:16.222Z,77.40
2017-08-17T22:26:43.130Z,77.60
2017-08-17T22:29:10.073Z,77.80
2017-08-17T22:31:36.990Z,77.70
2017-08-17T22:34:03.866Z,77.60
2017-08-17T22:36:30.813Z,77.40
2017-08-17T22:38:57.728Z,77.40
2017-08-17T22:41:24.617Z,77.50
2017-08-17T22:43:51.501Z,77.90
2017-08-17T22:46:18.490Z,78.40
2017-08-17T22:48:45.438Z,78.60
2017-08-17T22:51:12.312Z,78.60
2017-08-17T22:53:39.354Z,78.50
2017-08-17T22:56:06.282Z,78.70
2017-08-17T22:58:33.217Z,78.80
2017-08-17T23:01:00.129Z,79.00
2017-08-17T23:03:27.013Z,78.80
2017-08-17T23:05:53.961Z,78.80
2017-08-17T23:08:20.891Z,78.70
2017-08-17T23:10:47.777Z,78.90
2017-08-17T23:13:14.693Z,79.10
2017-08-17T23:15:41.652Z,78.80
2017-08-17T23:18:08.589Z,79.00
2017-08-17T23:20:35.543Z,78.90
2017-08-17T23:23:02.501Z,78.90
2017-08-17T23:25:29.386Z,78.90
2017-08-17T23:27:56.278Z,79.40
2017-08-17T23:30:23.226Z,79.60
2017-08-17T23:32:50.169Z,79.40
2017-08-17T23:35:17.109Z,79.50
2017-08-17T23:37:44.076Z,79.60
2017-08-17T23:40:10.957Z,79.60
2017-08-17T23:42:37.869Z,79.50
2017-08-17T23:45:04.792Z,79.50
2017-08-17T23:47:31.673Z,79.30
2017-08-17T23:49:58.606Z,79.30
2017-08-17T23:52:25.559Z,79.40
2017-08-17T23:54:52.477Z,79.50
2017-08-17T23:57:19.357Z,79.60
2017-08-17T23:59:46.272Z,79.90
